Time;durP1;ratioP1;P1;durP2;ratioP2;P2;SDS_P1;SDS_P2;PMS_P1;PMS_P2;Temp;Humidity;BMP_temperature;BMP_pressure;BME280_temperature;BME280_humidity;BME280_pressure;Samples;Min_cycle;Max_cycle;Signal;HPM_P1;HPM_P2
2021/12/15 13:09:43;;;;;;;16.43;2.67;;;;;;;9.24;58.59;99708.25;5629623;23;20291;-89
2021/12/15 13:12:22;;;;;;;3.50;1.83;;;;;;;9.31;59.40;99702.75;4955726;29;20670;-88
2021/12/15 13:14:48;;;;;;;17.07;2.50;;;;;;;9.35;57.97;99706.97;4939010;29;20213;-90
2021/12/15 13:17:22;;;;;;;2.80;1.87;;;;;;;8.94;58.66;99705.91;4955153;28;20187;-90
2021/12/15 13:19:51;;;;;;;6.27;2.40;;;;;;;8.77;60.42;99711.75;4937058;29;20204;-85
2021/12/15 13:30:33;;;;;;;6.00;2.57;;;;;;;8.47;61.30;99733.72;4956503;29;20210;-90
2021/12/15 13:33:10;;;;;;;6.47;2.97;;;;;;;8.27;62.05;99726.59;4963295;28;20280;-88
2021/12/15 13:35:43;;;;;;;7.60;2.37;;;;;;;8.47;62.04;99725.88;4963334;28;20301;-88
2021/12/15 13:38:10;;;;;;;3.90;1.97;;;;;;;8.81;61.25;99726.41;4964270;28;20189;-88
2021/12/15 13:41:07;;;;;;;5.77;2.30;;;;;;;8.44;61.19;99728.59;4956494;29;20219;-89
2021/12/15 13:43:41;;;;;;;6.90;2.97;;;;;;;8.44;61.46;99736.44;4939402;29;20206;-89
2021/12/15 13:46:41;;;;;;;5.90;2.90;;;;;;;8.24;62.22;99736.25;4956091;29;20226;-89
2021/12/15 13:49:21;;;;;;;7.93;2.63;;;;;;;8.25;61.89;99735.34;4936203;29;20232;-89
2021/12/15 13:51:56;;;;;;;4.60;2.70;;;;;;;8.23;62.24;99737.16;4956252;29;20182;-88
2021/12/15 13:54:41;;;;;;;3.63;2.10;;;;;;;8.42;62.14;99739.13;4955225;29;20219;-88
2021/12/15 13:57:13;;;;;;;5.83;3.13;;;;;;;8.29;61.93;99732.59;4950975;28;20240;-89
2021/12/15 13:59:41;;;;;;;7.53;2.73;;;;;;;8.19;62.13;99732.94;4956011;29;20198;-89
2021/12/15 14:02:15;;;;;;;6.43;2.10;;;;;;;7.98;62.83;99732.75;4939148;29;20195;-90
2021/12/15 14:05:06;;;;;;;7.07;3.17;;;;;;;7.90;62.28;99737.34;4956183;29;20231;-91
2021/12/15 14:07:38;;;;;;;7.23;3.63;;;;;;;7.98;62.73;99737.97;4956198;29;20189;-87
2021/12/15 14:10:24;;;;;;;5.67;2.23;;;;;;;8.06;62.24;99732.50;4955451;29;20265;-90
2021/12/15 14:12:51;;;;;;;8.63;1.87;;;;;;;8.13;61.71;99733.13;4939232;29;20197;-91
2021/12/15 14:15:35;;;;;;;6.10;2.93;;;;;;;7.79;62.44;99742.06;4955841;29;20209;-90
2021/12/15 14:18:06;;;;;;;4.13;1.97;;;;;;;7.74;63.35;99743.09;4961619;28;20192;-92
2021/12/15 14:20:45;;;;;;;6.67;2.93;;;;;;;7.57;64.08;99746.25;4961404;28;20267;-88
2021/12/15 14:23:27;;;;;;;4.20;2.33;;;;;;;7.49;64.42;99737.81;4949124;29;20264;-90
2021/12/15 14:25:54;;;;;;;10.23;3.30;;;;;;;7.39;64.29;99744.16;4963045;28;20619;-88
2021/12/15 14:28:50;;;;;;;6.67;3.13;;;;;;;7.59;64.41;99757.50;4955882;29;20192;-87
2021/12/15 14:31:20;;;;;;;5.97;2.53;;;;;;;7.54;64.36;99751.56;4949516;29;20203;-89
2021/12/15 14:33:49;;;;;;;4.60;2.40;;;;;;;7.54;64.63;99763.75;4955536;29;20189;-90
2021/12/15 14:36:21;;;;;;;7.83;2.53;;;;;;;7.42;65.47;99760.59;4929179;29;20202;-89
2021/12/15 14:39:12;;;;;;;7.13;3.67;;;;;;;7.52;64.47;99753.34;4954771;28;20212;-89
2021/12/15 14:41:49;;;;;;;3.97;2.27;;;;;;;7.47;64.29;99762.22;4930325;29;20185;-88
2021/12/15 14:44:21;;;;;;;11.30;4.40;;;;;;;7.39;64.89;99757.22;4952570;28;20745;-89
2021/12/15 14:46:56;;;;;;;9.93;3.60;;;;;;;7.28;65.25;99759.31;4926223;29;20204;-89
2021/12/15 14:49:33;;;;;;;4.23;3.30;;;;;;;7.42;64.79;99747.56;4956339;28;20658;-88
2021/12/15 14:52:09;;;;;;;4.80;2.73;;;;;;;7.37;65.22;99748.59;4945739;28;20283;-88
2021/12/15 14:54:38;;;;;;;8.17;3.20;;;;;;;7.32;65.35;99753.94;4949845;29;20212;-87
2021/12/15 14:57:17;;;;;;;5.20;1.90;;;;;;;7.14;65.56;99753.63;4958202;28;20279;-89
2021/12/15 14:59:54;;;;;;;5.30;2.53;;;;;;;7.19;66.28;99754.34;4942953;29;20184;-90
2021/12/15 15:02:26;;;;;;;9.20;3.10;;;;;;;7.20;65.32;99761.28;4958564;28;20185;-91
2021/12/15 15:05:00;;;;;;;5.30;2.37;;;;;;;7.16;65.50;99762.25;4960502;28;20639;-90
2021/12/15 15:07:32;;;;;;;7.50;2.53;;;;;;;6.95;65.63;99765.47;4954735;28;20201;-92
2021/12/15 15:10:00;;;;;;;8.20;3.80;;;;;;;7.13;65.71;99770.16;4947464;29;20312;-90
2021/12/15 15:12:33;;;;;;;7.03;3.37;;;;;;;7.06;65.95;99768.63;4935333;29;20208;-90
2021/12/15 15:15:12;;;;;;;5.90;2.87;;;;;;;7.13;64.96;99777.97;4942029;29;20579;-92
2021/12/15 15:18:04;;;;;;;4.73;2.37;;;;;;;7.12;65.27;99781.50;4955447;29;20162;-90
2021/12/15 15:20:42;;;;;;;6.77;2.77;;;;;;;6.91;65.14;99772.53;4938501;29;20678;-89
2021/12/15 15:23:19;;;;;;;8.40;3.00;;;;;;;6.65;66.42;99781.06;4955530;29;20173;-90
2021/12/15 15:25:53;;;;;;;7.77;2.70;;;;;;;6.74;66.53;99782.53;4936884;29;20195;-90
2021/12/15 15:28:24;;;;;;;7.00;3.03;;;;;;;6.55;66.50;99782.16;4930901;29;20195;-92
2021/12/15 15:30:54;;;;;;;6.57;2.87;;;;;;;6.67;66.51;99784.47;4928194;29;20312;-92
2021/12/15 15:33:24;;;;;;;7.20;3.13;;;;;;;6.67;66.28;99787.06;4955243;29;20283;-89
2021/12/15 15:36:16;;;;;;;4.53;2.33;;;;;;;6.59;66.43;99791.63;4953297;28;20738;-89
2021/12/15 15:38:48;;;;;;;7.10;2.33;;;;;;;6.70;66.18;99787.00;4958884;28;20189;-89
2021/12/15 15:41:27;;;;;;;7.87;3.20;;;;;;;6.61;65.64;99797.66;4955987;28;20189;-90
2021/12/15 15:44:11;;;;;;;8.77;3.37;;;;;;;6.71;66.01;99793.91;4945992;29;20266;-91
2021/12/15 15:46:41;;;;;;;3.57;1.97;;;;;;;6.53;65.76;99791.78;4954598;29;20192;-94
2021/12/15 15:49:15;;;;;;;3.17;1.90;;;;;;;6.47;66.22;99793.69;4964611;28;20195;-92
2021/12/15 15:51:44;;;;;;;3.03;1.80;;;;;;;6.47;66.65;99788.50;4950023;29;20292;-91
2021/12/15 15:54:17;;;;;;;4.83;2.73;;;;;;;6.45;67.10;99792.88;4953804;29;20279;-90
2021/12/15 15:56:44;;;;;;;8.20;3.37;;;;;;;6.46;67.47;99786.78;4944811;29;20205;-91
2021/12/15 15:59:18;;;;;;;5.93;3.20;;;;;;;6.46;67.04;99785.03;4938779;29;20640;-92
2021/12/15 16:01:49;;;;;;;5.97;2.57;;;;;;;6.48;67.13;99787.59;4958694;29;20195;-89
2021/12/15 16:04:18;;;;;;;2.47;1.60;;;;;;;6.57;66.12;99770.00;4963643;28;20193;-94
2021/12/15 16:06:46;;;;;;;7.13;3.33;;;;;;;6.47;66.74;99789.31;4937897;29;20277;-92
2021/12/15 16:09:14;;;;;;;7.27;3.43;;;;;;;6.46;67.04;99790.25;4939392;28;20196;-92
2021/12/15 16:11:48;;;;;;;5.07;1.87;;;;;;;6.42;67.11;99785.97;4941139;29;20643;-91
2021/12/15 16:14:25;;;;;;;5.53;2.60;;;;;;;6.39;67.78;99788.69;4944771;28;20189;-90
2021/12/15 16:19:37;;;;;;;4.97;2.63;;;;;;;6.51;67.30;99785.75;4957832;29;20251;-91
2021/12/15 16:25:18;;;;;;;6.60;3.07;;;;;;;6.46;66.19;99792.84;4952006;29;20324;-91
2021/12/15 16:27:52;;;;;;;15.17;4.10;;;;;;;6.70;66.19;99807.84;4937724;29;20283;-91
2021/12/15 16:30:33;;;;;;;3.93;2.27;;;;;;;6.75;66.47;99798.16;4938760;29;20650;-90
2021/12/15 16:33:01;;;;;;;4.77;2.93;;;;;;;6.75;65.63;99805.09;4966082;28;20577;-89
2021/12/15 16:35:35;;;;;;;6.63;2.90;;;;;;;6.57;65.89;99801.25;4966205;28;20213;-90
2021/12/15 16:38:34;;;;;;;6.63;2.67;;;;;;;6.75;65.94;99797.28;4965952;28;20203;-88
2021/12/15 16:41:20;;;;;;;5.50;2.83;;;;;;;6.62;66.29;99807.19;4965737;28;20188;-89
2021/12/15 16:44:15;;;;;;;7.53;2.63;;;;;;;6.58;66.62;99815.09;4954940;29;20267;-89
2021/12/15 16:46:55;;;;;;;9.23;2.57;;;;;;;6.65;66.12;99809.72;4932496;29;20639;-90
2021/12/15 16:49:27;;;;;;;6.93;2.67;;;;;;;6.78;65.63;99816.31;4935729;29;20192;-89
2021/12/15 16:52:14;;;;;;;7.60;3.50;;;;;;;6.90;66.03;99817.72;4949429;29;20272;-88
2021/12/15 16:55:05;;;;;;;7.37;3.10;;;;;;;6.89;64.86;99817.78;4935617;29;20200;-90
2021/12/15 16:57:35;;;;;;;6.97;2.43;;;;;;;6.98;64.97;99823.59;4955954;28;20221;-90
2021/12/15 17:00:19;;;;;;;6.20;2.97;;;;;;;6.97;64.82;99823.63;4939678;29;20200;-89
2021/12/15 17:02:57;;;;;;;8.50;2.90;;;;;;;6.96;64.53;99825.38;4938900;29;20177;-88
2021/12/15 17:08:45;;;;;;;8.63;3.73;;;;;;;6.79;66.27;99828.41;4954640;29;20253;-90
2021/12/15 17:11:15;;;;;;;16.13;4.20;;;;;;;6.99;65.77;99824.44;4948057;28;20232;-88
2021/12/15 17:13:43;;;;;;;4.43;2.60;;;;;;;6.93;65.42;99829.81;4935430;29;20540;-88
2021/12/15 17:30:44;;;;;;;;;;;;;;;;;;;;;
2021/12/15 17:37:16;;;;;;;8.63;3.87;;;;;;;7.04;65.15;99833.84;4884933;29;20240;-89
2021/12/15 17:40:39;;;;;;;;;;;;;;;;;;;;;
2021/12/15 17:47:24;;;;;;;5.07;2.67;;;;;;;7.04;65.53;99840.81;4896310;29;20191;-88
2021/12/15 17:50:13;;;;;;;8.03;3.50;;;;;;;7.09;65.49;99846.75;4879974;29;20289;-89
2021/12/15 17:53:13;;;;;;;6.37;2.53;;;;;;;6.93;65.25;99841.09;4877831;29;20186;-88
2021/12/15 17:55:49;;;;;;;8.17;3.63;;;;;;;6.90;65.59;99840.31;4892763;29;20230;-88
2021/12/15 17:58:24;;;;;;;3.30;1.60;;;;;;;7.05;65.00;99845.13;4896829;29;20225;-89
2021/12/15 18:01:06;;;;;;;10.07;3.20;;;;;;;7.20;65.04;99850.78;4894405;29;20193;-89
2021/12/15 18:03:37;;;;;;;10.70;3.40;;;;;;;6.89;64.81;99854.25;4894788;29;20281;-89
2021/12/15 18:06:07;;;;;;;6.00;3.70;;;;;;;6.97;64.67;99854.91;4892935;29;20187;-89
2021/12/15 18:08:34;;;;;;;10.17;4.13;;;;;;;6.90;65.03;99858.56;4904100;29;20265;-88
2021/12/15 18:11:06;;;;;;;5.27;2.70;;;;;;;6.92;64.56;99862.81;4952354;28;20236;-88
2021/12/15 18:13:36;;;;;;;3.93;2.70;;;;;;;6.95;64.57;99859.28;4920308;29;20205;-88
2021/12/15 18:16:05;;;;;;;6.13;3.20;;;;;;;7.02;64.38;99860.84;4955554;29;20213;-88
2021/12/15 18:18:36;;;;;;;6.40;2.97;;;;;;;6.93;64.02;99856.72;4951319;29;20579;-88
2021/12/15 18:21:06;;;;;;;9.50;3.60;;;;;;;6.97;64.63;99863.56;4946811;28;20598;-88
2021/12/15 18:23:34;;;;;;;9.13;4.57;;;;;;;7.02;64.00;99856.50;4953435;29;20698;-88
2021/12/15 18:26:05;;;;;;;6.30;3.57;;;;;;;6.86;64.30;99856.94;4945256;29;20181;-87
2021/12/15 18:28:32;;;;;;;7.87;4.67;;;;;;;6.91;64.45;99868.09;4950356;29;20188;-88
2021/12/15 18:31:02;;;;;;;12.67;3.83;;;;;;;6.78;64.95;99862.34;4950611;29;20185;-87
2021/12/15 18:33:30;;;;;;;5.03;2.67;;;;;;;7.05;64.52;99856.41;4954046;28;20212;-88
2021/12/15 18:35:58;;;;;;;8.20;2.97;;;;;;;6.84;64.96;99867.38;4956103;28;20216;-88
2021/12/15 18:38:25;;;;;;;6.10;2.53;;;;;;;6.87;64.74;99862.09;4940439;28;20200;-88
2021/12/15 18:40:57;;;;;;;5.07;1.90;;;;;;;6.84;64.15;99856.13;4938398;29;20212;-88
2021/12/15 18:43:23;;;;;;;6.90;2.47;;;;;;;6.73;64.75;99862.44;4948805;29;20193;-90
2021/12/15 18:45:50;;;;;;;7.90;3.73;;;;;;;6.72;64.67;99852.94;4931360;29;20181;-88
2021/12/15 18:48:18;;;;;;;4.77;2.53;;;;;;;6.66;65.07;99862.63;4930693;29;20562;-89
2021/12/15 18:50:52;;;;;;;5.27;2.30;;;;;;;6.87;65.02;99863.84;4951078;28;20616;-88
2021/12/15 18:53:18;;;;;;;6.50;2.23;;;;;;;6.90;64.44;99866.38;4938239;29;20191;-88
2021/12/15 18:55:44;;;;;;;3.93;2.23;;;;;;;6.92;64.70;99867.22;4955030;29;20279;-88
2021/12/15 18:58:10;;;;;;;5.90;3.10;;;;;;;7.09;63.72;99862.38;4937586;29;20201;-87
2021/12/15 19:00:41;;;;;;;7.03;2.83;;;;;;;6.80;64.09;99870.97;4955335;29;20196;-89
2021/12/15 19:03:08;;;;;;;2.70;1.53;;;;;;;6.66;64.98;99873.91;4933757;29;20193;-91
2021/12/15 19:05:34;;;;;;;2.33;2.10;;;;;;;6.53;65.22;99872.50;4937855;29;20192;-90
2021/12/15 19:08:00;;;;;;;6.10;2.70;;;;;;;6.62;65.56;99880.13;4938281;29;20193;-89
2021/12/15 19:10:26;;;;;;;6.30;3.83;;;;;;;6.67;65.19;99880.00;4937841;29;20243;-89
2021/12/15 19:12:55;;;;;;;8.67;2.67;;;;;;;6.70;65.27;99879.91;4954508;29;20283;-89
2021/12/15 19:15:22;;;;;;;9.80;2.37;;;;;;;6.80;65.07;99882.25;4937295;29;20197;-87
2021/12/15 19:17:47;;;;;;;4.03;2.07;;;;;;;6.84;65.60;99882.19;4954504;29;20295;-88
2021/12/15 19:20:20;;;;;;;3.43;2.27;;;;;;;6.64;65.94;99886.13;4938045;29;20651;-89
2021/12/15 19:22:46;;;;;;;5.37;2.50;;;;;;;6.59;66.26;99887.13;4954286;29;20275;-90
2021/12/15 19:25:12;;;;;;;11.33;3.87;;;;;;;6.57;66.14;99881.97;4954445;29;20673;-91
2021/12/15 19:27:38;;;;;;;6.20;3.43;;;;;;;6.67;65.77;99880.84;4931610;29;20287;-88
2021/12/15 19:30:10;;;;;;;8.87;3.50;;;;;;;6.80;65.65;99882.25;4948003;29;20526;-88
2021/12/15 19:32:36;;;;;;;7.93;2.97;;;;;;;6.91;65.05;99873.31;4952719;28;20217;-89
2021/12/15 19:35:03;;;;;;;7.60;3.47;;;;;;;6.89;65.69;99877.72;4939479;29;20719;-89
2021/12/15 19:37:29;;;;;;;9.20;3.80;;;;;;;6.88;65.95;99878.59;4928282;28;20188;-88
2021/12/15 19:39:55;;;;;;;6.77;2.07;;;;;;;6.69;66.59;99889.47;4945786;28;20205;-88
2021/12/15 19:42:20;;;;;;;5.83;2.40;;;;;;;6.61;66.72;99890.56;4953279;29;20256;-89
2021/12/15 19:44:46;;;;;;;5.27;2.17;;;;;;;6.71;65.88;99886.81;4952912;28;20198;-89
2021/12/15 19:47:13;;;;;;;5.83;2.53;;;;;;;6.77;66.09;99886.69;4956439;28;20291;-89
2021/12/15 19:49:41;;;;;;;4.90;2.70;;;;;;;6.66;65.77;99884.34;4937653;29;20197;-88
2021/12/15 19:52:10;;;;;;;4.37;2.67;;;;;;;6.63;66.01;99881.81;4952799;29;20193;-89
2021/12/15 19:54:37;;;;;;;6.37;2.80;;;;;;;6.77;65.58;99892.75;4948002;29;20204;-90
2021/12/15 19:57:04;;;;;;;6.93;2.90;;;;;;;6.68;65.18;99892.97;4926254;29;20279;-89
2021/12/15 19:59:30;;;;;;;8.20;2.87;;;;;;;6.68;65.37;99887.75;4953573;29;20576;-88
2021/12/15 20:01:58;;;;;;;7.17;3.47;;;;;;;6.69;65.70;99886.88;4937666;29;20200;-88
2021/12/15 20:04:27;;;;;;;5.90;2.50;;;;;;;6.82;65.50;99888.28;4953993;29;20192;-89
2021/12/15 20:06:55;;;;;;;5.13;2.00;;;;;;;6.80;65.68;99884.00;4952023;29;20634;-88
2021/12/15 20:09:26;;;;;;;11.47;3.07;;;;;;;6.74;65.52;99882.41;4945529;28;20193;-88
2021/12/15 20:11:54;;;;;;;4.93;2.60;;;;;;;6.72;65.94;99884.19;4955949;28;20272;-89
2021/12/15 20:14:21;;;;;;;7.47;3.30;;;;;;;6.84;65.33;99897.81;4935223;29;20586;-89
2021/12/15 20:16:50;;;;;;;6.03;2.97;;;;;;;6.77;65.27;99895.34;4944365;29;20213;-88
2021/12/15 20:19:18;;;;;;;5.83;3.60;;;;;;;6.62;66.10;99898.34;4943860;29;20217;-91
2021/12/15 20:21:46;;;;;;;11.70;3.73;;;;;;;6.71;66.31;99895.50;4951349;28;20669;-90
2021/12/15 20:24:15;;;;;;;6.80;3.83;;;;;;;6.58;66.19;99896.69;4962478;28;20189;-91
2021/12/15 20:26:40;;;;;;;9.70;3.87;;;;;;;6.70;66.84;99895.56;4956358;28;20188;-88
2021/12/15 22:07:54;;;;;;;6.70;3.20;;;;;;;7.51;63.97;99931.63;5479561;23;20247;-91
2021/12/15 22:10:25;;;;;;;6.17;3.43;;;;;;;7.55;64.45;99928.03;4956412;28;20647;-91
2021/12/15 22:12:52;;;;;;;9.33;3.83;;;;;;;7.59;63.71;99921.84;4939669;29;20272;-91
2021/12/15 22:15:22;;;;;;;9.70;5.13;;;;;;;7.55;63.71;99924.59;4939777;29;20219;-91
2021/12/15 22:17:48;;;;;;;9.70;3.87;;;;;;;7.53;63.82;99924.63;4956417;29;20216;-91
2021/12/15 22:20:15;;;;;;;7.67;3.73;;;;;;;7.55;63.69;99919.38;4956529;28;20181;-90
2021/12/15 22:22:42;;;;;;;6.60;2.97;;;;;;;7.47;63.88;99922.16;4939582;29;20577;-90
2021/12/15 22:25:09;;;;;;;7.03;3.70;;;;;;;7.43;64.07;99920.56;4955882;29;20184;-90
2021/12/15 22:27:36;;;;;;;7.87;3.23;;;;;;;7.36;64.27;99913.81;4939560;29;20188;-91
2021/12/15 22:30:04;;;;;;;10.60;3.93;;;;;;;7.35;64.06;99915.56;4955672;28;20185;-91
2021/12/15 22:32:33;;;;;;;12.33;3.63;;;;;;;7.32;63.89;99906.94;4937173;29;20190;-91
2021/12/15 22:34:59;;;;;;;8.17;3.67;;;;;;;7.28;63.85;99905.34;4920402;29;20181;-90
2021/12/15 22:37:24;;;;;;;5.63;2.50;;;;;;;7.22;63.91;99900.28;4937824;29;20248;-91
2021/12/15 22:39:57;;;;;;;9.63;3.83;;;;;;;7.14;64.04;99903.09;4956212;28;20173;-91
2021/12/15 22:42:23;;;;;;;6.27;2.70;;;;;;;6.91;64.54;99910.66;4956537;29;20203;-90
2021/12/15 22:44:49;;;;;;;8.67;3.33;;;;;;;6.81;65.69;99903.97;4956200;28;20189;-91
2021/12/15 22:47:16;;;;;;;4.13;2.33;;;;;;;6.66;65.88;99901.72;4956393;28;20179;-90
2021/12/15 22:49:43;;;;;;;7.57;3.37;;;;;;;6.51;66.83;99895.16;4939468;29;20185;-90
2021/12/15 22:52:10;;;;;;;8.00;3.57;;;;;;;6.43;67.18;99897.06;4956158;28;20268;-91
2021/12/15 22:54:36;;;;;;;9.30;3.67;;;;;;;6.40;67.26;99898.88;4938962;29;20185;-91
2021/12/15 22:57:06;;;;;;;7.77;3.30;;;;;;;6.27;67.54;99898.31;4953785;28;20201;-90
2021/12/15 22:59:33;;;;;;;8.80;4.20;;;;;;;6.23;67.97;99899.28;4938899;29;20216;-90
2021/12/15 23:02:06;;;;;;;6.67;3.27;;;;;;;6.12;68.62;99901.28;4955416;28;20657;-90
2021/12/15 23:04:32;;;;;;;14.40;3.03;;;;;;;6.12;68.79;99903.88;4956091;29;20208;-90
2021/12/15 23:07:01;;;;;;;9.80;4.13;;;;;;;6.22;68.45;99899.31;4939399;28;20227;-91
2021/12/15 23:09:27;;;;;;;6.53;3.73;;;;;;;6.23;68.49;99899.28;4955375;28;20204;-91
2021/12/15 23:12:37;;;;;;;6.43;2.47;;;;;;;6.12;68.62;99901.28;4938662;29;20691;-89
2021/12/15 23:15:24;;;;;;;7.97;3.40;;;;;;;5.89;69.50;99903.53;4934703;29;20193;-90
2021/12/15 23:17:59;;;;;;;3.60;2.77;;;;;;;5.92;69.69;99904.31;4936693;29;20162;-90
2021/12/15 23:20:34;;;;;;;5.50;2.70;;;;;;;5.89;69.81;99900.94;4954005;29;20188;-90
2021/12/15 23:23:03;;;;;;;6.10;2.93;;;;;;;5.90;69.64;99902.63;4954824;29;20195;-91
2021/12/15 23:25:29;;;;;;;7.33;3.20;;;;;;;5.95;69.61;99903.38;4954897;28;20259;-90
2021/12/15 23:28:03;;;;;;;10.77;4.17;;;;;;;5.85;70.21;99899.25;4955050;28;20275;-89
2021/12/15 23:30:32;;;;;;;5.60;2.90;;;;;;;5.80;70.43;99898.47;4955169;29;20212;-91
2021/12/15 23:32:58;;;;;;;10.13;3.70;;;;;;;5.73;70.73;99909.91;4955978;28;20173;-90
2021/12/15 23:38:09;;;;;;;8.00;4.17;;;;;;;5.78;70.70;99901.13;4955640;28;20662;-90
